Terminal Aerodrome Forecast
Issued by NWS

Home | Current Version | Previous Version | Text Only | Print | Product List | Glossary On
Versions: 1 2 3 4 5 6 7 8 9 10 11 12 13 14 15 16 17 18
000
FTUS43 KILX 232300 RRA
TAFCMI
TAF
KCMI 232345Z 2400/2424 09006KT P6SM SCT100
     FM240200 10012KT P6SM VCSH BKN080
     FM240500 11009KT P6SM BKN100
     FM241600 14013KT P6SM VCSH BKN050
     FM242200 16018G30KT P6SM VCTS OVC050CB=

USA.gov is the U.S. government's official web portal to all federal, state and local government web resources and services.